Terminal Aerodrome Forecast
Issued by NWS

Current Version | Previous Version | Graphics & Text | Print | Product List | Glossary On
Versions: 1 2 3 4 5 6 7 8 9 10 11 12 13 14 15 16 17 18 19 20 21 22 23
000
FTUS41 KILN 170700 AAA
TAFLCK
TAF AMD
KLCK 170704Z 1707/1806 00000KT 4SM BR BKN002
     FM170800 00000KT 1SM BR BKN002
      TEMPO 1709/1712 1/4SM FG VV002
     FM171200 00000KT 2SM BR SCT002
     FM171300 VRB03KT P6SM SCT030
     FM171800 26004KT P6SM SCT035 SCT120
     FM172300 35004KT P6SM FEW100=

USA.gov is the U.S. government's official web portal to all federal, state and local government web resources and services.